Time;durP1;ratioP1;P1;durP2;ratioP2;P2;SDS_P1;SDS_P2;PMS_P1;PMS_P2;Temp;Humidity;BMP_temperature;BMP_pressure;BME280_temperature;BME280_humidity;BME280_pressure;Samples;Min_cycle;Max_cycle;Signal;HPM_P1;HPM_P2
2021/11/06 00:00:04;;;;;;;7.75;4.47;;;;;;;11.63;72.56;99030.75;5103241;28;20101;-94
2021/11/06 00:02:33;;;;;;;7.07;4.37;;;;;;;11.55;72.47;99014.94;5103370;28;20068;-95
2021/11/06 00:05:00;;;;;;;7.70;4.53;;;;;;;11.60;72.73;99045.03;5101671;28;20131;-94
2021/11/06 00:07:26;;;;;;;7.40;4.10;;;;;;;11.61;73.19;99053.88;5104079;28;20048;-94
2021/11/06 00:09:54;;;;;;;8.13;5.05;;;;;;;11.52;73.58;99037.22;5102706;28;20044;-94
2021/11/06 00:12:22;;;;;;;8.33;4.63;;;;;;;11.65;73.44;99072.41;5102729;28;20542;-94
2021/11/06 00:14:48;;;;;;;7.53;4.38;;;;;;;11.45;73.55;99042.72;5101903;28;20677;-94
2021/11/06 00:17:14;;;;;;;8.23;4.03;;;;;;;11.37;73.33;99024.31;5102139;28;20048;-94
2021/11/06 00:19:40;;;;;;;8.57;4.40;;;;;;;11.41;73.29;99019.78;5101698;28;20040;-95
2021/11/06 00:22:07;;;;;;;7.70;4.28;;;;;;;11.49;72.92;99024.00;5103436;28;20047;-92
2021/11/06 00:24:33;;;;;;;7.55;3.67;;;;;;;11.58;72.96;99049.50;5102170;28;20473;-93
2021/11/06 00:27:02;;;;;;;5.75;3.95;;;;;;;11.55;73.08;99027.41;5103142;28;20393;-94
2021/11/06 00:29:29;;;;;;;9.18;3.90;;;;;;;11.61;72.74;99060.06;5100637;28;20051;-94
2021/11/06 00:31:55;;;;;;;6.28;3.70;;;;;;;11.49;72.96;99036.41;5103920;28;20044;-95
2021/11/06 00:34:21;;;;;;;8.25;3.90;;;;;;;11.52;73.55;99041.69;5103620;28;20056;-94
2021/11/06 00:36:47;;;;;;;5.65;3.60;;;;;;;11.48;72.87;99024.03;5103075;28;20041;-95
2021/11/06 00:39:14;;;;;;;6.43;3.90;;;;;;;11.44;72.81;99023.22;5101675;28;20069;-95
2021/11/06 00:41:39;;;;;;;7.15;4.15;;;;;;;11.56;72.73;99029.13;5100138;28;20122;-91
2021/11/06 00:44:05;;;;;;;7.75;3.60;;;;;;;11.49;72.46;99026.66;5100825;28;20044;-93
2021/11/06 00:46:33;;;;;;;9.30;3.65;;;;;;;11.47;72.08;99024.94;5099727;28;20051;-92
2021/11/06 00:48:59;;;;;;;7.97;3.40;;;;;;;11.42;72.25;99019.72;5099823;28;20127;-94
2021/11/06 00:51:25;;;;;;;6.78;3.58;;;;;;;11.38;72.50;99026.03;5099312;28;20040;-93
2021/11/06 00:53:53;;;;;;;6.68;3.08;;;;;;;11.38;72.66;99025.19;5099945;28;20130;-94
2021/11/06 00:56:22;;;;;;;9.88;3.72;;;;;;;11.40;73.01;99039.31;5099596;28;20099;-92
2021/11/06 00:58:48;;;;;;;6.15;3.63;;;;;;;11.28;73.24;99043.19;5097917;28;20047;-94
2021/11/06 01:01:14;;;;;;;6.32;3.28;;;;;;;11.24;73.35;99037.06;5102606;28;20032;-95
2021/11/06 01:03:42;;;;;;;8.77;3.50;;;;;;;11.43;73.37;99065.91;5099106;28;20044;-93
2021/11/06 01:06:08;;;;;;;7.50;3.72;;;;;;;11.34;73.58;99048.34;5100706;28;20047;-91
2021/11/06 01:08:35;;;;;;;7.00;3.88;;;;;;;11.39;73.41;99065.09;5098610;28;20505;-93
2021/11/06 01:11:01;;;;;;;6.88;3.15;;;;;;;11.25;73.74;99051.25;5098613;28;20127;-93
2021/11/06 01:13:28;;;;;;;5.25;3.40;;;;;;;11.21;73.97;99033.59;5098669;28;20036;-93
2021/11/06 01:15:54;;;;;;;4.45;3.15;;;;;;;11.29;74.15;99051.13;5100936;28;20032;-92
2021/11/06 01:18:20;;;;;;;7.20;3.80;;;;;;;11.22;74.04;99036.22;5099300;28;20040;-93
2021/11/06 01:20:48;;;;;;;7.85;3.95;;;;;;;11.23;74.14;99030.00;5103294;28;20554;-94
2021/11/06 01:23:14;;;;;;;6.47;3.28;;;;;;;11.24;74.50;99042.38;5103264;28;20102;-95
2021/11/06 01:25:41;;;;;;;10.68;3.35;;;;;;;11.17;75.13;99029.25;5101530;28;20052;-93
2021/11/06 01:28:07;;;;;;;8.98;4.43;;;;;;;11.34;74.51;99058.13;5101785;28;20493;-93
2021/11/06 01:30:33;;;;;;;7.20;3.83;;;;;;;11.12;75.03;99032.03;5103321;28;20101;-94
2021/11/06 01:32:59;;;;;;;9.50;3.72;;;;;;;11.04;75.20;99028.72;5101333;28;20482;-93
2021/11/06 01:35:25;;;;;;;7.15;3.33;;;;;;;11.27;75.29;99062.72;5101214;28;20030;-93
2021/11/06 01:37:53;;;;;;;6.68;4.35;;;;;;;11.11;75.46;99027.66;5103607;28;20055;-94
2021/11/06 01:40:20;;;;;;;8.45;3.72;;;;;;;11.08;75.53;99023.28;5102776;28;20394;-93
2021/11/06 01:42:47;;;;;;;6.88;4.10;;;;;;;11.09;75.53;99009.03;5099927;28;20131;-94
2021/11/06 01:45:16;;;;;;;13.25;4.40;;;;;;;11.09;75.48;99014.38;5103114;28;20499;-92
2021/11/06 01:47:42;;;;;;;7.90;4.15;;;;;;;11.03;75.75;99016.31;5099993;28;20924;-93
2021/11/06 01:50:10;;;;;;;10.23;3.83;;;;;;;11.16;76.22;99054.16;5098269;28;20069;-93
2021/11/06 01:52:37;;;;;;;9.15;4.20;;;;;;;10.94;76.47;99027.19;5097405;28;20096;-95
2021/11/06 01:55:06;;;;;;;8.45;4.05;;;;;;;11.07;76.42;99056.13;5100357;28;20040;-93
2021/11/06 01:57:32;;;;;;;;;;;;;;;11.09;76.64;99069.41;5095709;28;20044;-93
2021/11/06 01:59:58;;;;;;;9.18;4.03;;;;;;;10.98;76.99;99058.13;5101307;28;19927;-93
2021/11/06 02:02:25;;;;;;;8.00;3.75;;;;;;;10.92;76.71;99050.31;5100419;28;20048;-94
2021/11/06 02:04:51;;;;;;;7.50;3.80;;;;;;;10.85;76.44;99026.50;5099488;28;20048;-93
2021/11/06 02:07:17;;;;;;;7.15;3.85;;;;;;;10.97;76.51;99048.38;5098757;28;20036;-92
2021/11/06 02:09:43;;;;;;;6.05;3.58;;;;;;;10.82;76.46;99029.25;5098252;28;20081;-93
2021/11/06 02:12:11;;;;;;;8.15;3.78;;;;;;;11.07;76.52;99061.44;5101616;28;20044;-94
2021/11/06 02:14:37;;;;;;;6.18;3.80;;;;;;;11.07;76.27;99064.09;5102188;28;20139;-93
2021/11/06 02:17:04;;;;;;;9.00;4.13;;;;;;;11.10;76.26;99066.69;5097323;28;20127;-93
2021/11/06 02:19:33;;;;;;;8.55;3.42;;;;;;;10.93;76.39;99028.09;5097992;28;20051;-94
2021/11/06 02:22:02;;;;;;;7.95;4.25;;;;;;;10.90;76.27;99026.38;5099067;28;20497;-91
2021/11/06 02:24:28;;;;;;;9.10;4.00;;;;;;;10.86;76.44;99016.72;5099545;28;20058;-93
2021/11/06 02:26:55;;;;;;;8.18;4.28;;;;;;;11.02;76.52;99047.38;5098390;28;20062;-93
2021/11/06 02:29:21;;;;;;;7.65;3.58;;;;;;;10.96;76.32;99039.53;5097362;28;20044;-92
2021/11/06 02:31:47;;;;;;;6.47;3.80;;;;;;;11.07;75.94;99041.94;5096938;28;20044;-94
2021/11/06 02:34:13;;;;;;;8.13;3.97;;;;;;;11.09;76.05;99050.75;5099367;28;20048;-94
2021/11/06 02:36:40;;;;;;;6.97;3.92;;;;;;;11.05;75.77;99052.63;5098038;28;20047;-95
2021/11/06 02:39:08;;;;;;;7.20;3.75;;;;;;;11.04;75.69;99045.56;5096918;28;20550;-93
2021/11/06 02:41:34;;;;;;;6.47;4.00;;;;;;;11.02;75.28;99049.19;5101020;28;20064;-93
2021/11/06 02:44:06;;;;;;;8.57;3.80;;;;;;;11.10;75.50;99050.72;5097075;28;20116;-95
2021/11/06 02:46:34;;;;;;;8.45;3.83;;;;;;;11.13;75.30;99055.09;5097013;28;20064;-95
2021/11/06 02:49:00;;;;;;;7.37;3.50;;;;;;;11.18;75.52;99060.31;5100002;28;20040;-91
2021/11/06 02:51:26;;;;;;;7.88;3.85;;;;;;;11.09;75.40;99051.63;5099670;28;20080;-93
2021/11/06 02:53:52;;;;;;;10.50;3.72;;;;;;;11.14;75.53;99062.16;5098952;28;20036;-95
2021/11/06 02:56:23;;;;;;;8.48;4.47;;;;;;;11.00;75.99;99059.84;5098457;28;20115;-93
2021/11/06 02:58:49;;;;;;;7.32;4.03;;;;;;;10.89;76.06;99041.47;5097746;28;20493;-93
2021/11/06 03:01:15;;;;;;;7.43;4.40;;;;;;;10.97;76.67;99067.88;5100369;28;20032;-93
2021/11/06 03:03:41;;;;;;;6.40;3.67;;;;;;;10.89;76.61;99043.28;5099245;28;20044;-95
2021/11/06 03:06:07;;;;;;;7.05;3.80;;;;;;;10.89;76.99;99056.56;5099222;28;20036;-93
2021/11/06 03:08:33;;;;;;;7.72;4.00;;;;;;;10.98;77.09;99074.97;5100369;28;20060;-93
2021/11/06 03:10:59;;;;;;;9.93;3.95;;;;;;;10.82;77.59;99061.16;5104157;28;20470;-93
2021/11/06 03:13:27;;;;;;;7.68;4.28;;;;;;;10.94;77.77;99077.75;5102365;28;20135;-94
2021/11/06 03:15:53;;;;;;;7.72;4.40;;;;;;;10.84;77.67;99061.09;5101344;28;20066;-93
2021/11/06 03:18:19;;;;;;;7.30;3.88;;;;;;;10.81;77.86;99058.53;5101324;28;20104;-91
2021/11/06 03:20:45;;;;;;;8.48;4.68;;;;;;;10.75;78.18;99062.19;5101676;28;20062;-95
2021/11/06 03:23:11;;;;;;;8.65;4.03;;;;;;;10.94;78.34;99088.38;5100945;28;20504;-93
2021/11/06 03:25:37;;;;;;;7.57;4.40;;;;;;;10.76;78.89;99060.44;5100832;28;20056;-92
2021/11/06 03:28:04;;;;;;;7.28;4.07;;;;;;;10.70;78.93;99064.09;5104386;28;20131;-94
2021/11/06 03:30:31;;;;;;;6.85;4.40;;;;;;;10.69;79.33;99075.63;5100531;28;20051;-95
2021/11/06 03:32:57;;;;;;;8.55;4.32;;;;;;;10.74;79.60;99087.06;5101410;28;20040;-93
2021/11/06 03:35:24;;;;;;;6.47;4.60;;;;;;;10.83;79.61;99099.28;5101602;28;20555;-93
2021/11/06 03:37:50;;;;;;;8.15;4.20;;;;;;;10.77;79.84;99092.31;5102754;28;20040;-93
2021/11/06 03:40:16;;;;;;;7.45;4.60;;;;;;;10.90;79.36;99109.72;5102617;28;20097;-92
2021/11/06 03:42:42;;;;;;;5.80;3.90;;;;;;;10.98;79.09;99111.34;5102359;28;20059;-94
2021/11/06 03:45:09;;;;;;;6.20;3.63;;;;;;;10.73;79.42;99082.63;5103803;28;20044;-94
2021/11/06 03:47:37;;;;;;;5.80;3.40;;;;;;;10.85;79.67;99106.31;5101151;28;20032;-93
2021/11/06 03:50:05;;;;;;;7.20;4.22;;;;;;;10.70;79.55;99074.75;5100943;28;20046;-92
2021/11/06 03:52:31;;;;;;;5.38;3.55;;;;;;;10.83;79.71;99101.94;5102424;28;20040;-94
2021/11/06 03:54:57;;;;;;;7.72;3.63;;;;;;;10.60;80.36;99073.19;5104729;28;20132;-93
2021/11/06 03:57:25;;;;;;;7.07;4.40;;;;;;;10.49;80.65;99065.44;5103557;28;20101;-94
2021/11/06 03:59:51;;;;;;;6.75;3.83;;;;;;;10.58;80.27;99088.31;5102550;28;20417;-93
2021/11/06 04:02:17;;;;;;;5.88;3.58;;;;;;;10.52;80.70;99081.34;5103925;28;20077;-94
2021/11/06 04:04:45;;;;;;;5.88;3.60;;;;;;;10.60;80.92;99107.75;5102654;28;20040;-93
2021/11/06 04:07:11;;;;;;;7.57;3.45;;;;;;;10.45;80.77;99080.63;5100085;28;20040;-93
2021/11/06 04:09:36;;;;;;;6.30;3.17;;;;;;;10.69;80.96;99121.75;5101302;28;20040;-91
2021/11/06 04:12:04;;;;;;;5.78;3.15;;;;;;;10.45;81.06;99079.72;5102283;28;20044;-93
2021/11/06 04:14:30;;;;;;;5.20;3.30;;;;;;;10.44;80.94;99076.19;5101493;28;20040;-94
2021/11/06 04:16:56;;;;;;;9.18;3.25;;;;;;;10.58;81.06;99113.13;5103443;28;20062;-93
2021/11/06 04:19:22;;;;;;;5.18;3.25;;;;;;;10.50;81.20;99091.16;5101022;28;20047;-94
2021/11/06 04:21:51;;;;;;;6.63;3.42;;;;;;;10.43;81.10;99090.41;5101020;28;20051;-95
2021/11/06 04:24:17;;;;;;;6.30;3.28;;;;;;;10.51;81.50;99111.50;5102451;28;20052;-94
2021/11/06 04:26:43;;;;;;;4.40;2.83;;;;;;;10.43;81.64;99101.03;5102922;28;20048;-95
2021/11/06 04:29:11;;;;;;;3.92;2.38;;;;;;;10.43;81.15;99081.53;5100404;28;20375;-93
2021/11/06 04:31:37;;;;;;;3.78;2.20;;;;;;;10.37;81.63;99084.34;5104041;28;20058;-94
2021/11/06 04:34:03;;;;;;;6.28;3.10;;;;;;;10.48;81.36;99104.47;5101638;28;20056;-93
2021/11/06 04:36:29;;;;;;;6.25;2.70;;;;;;;10.46;81.55;99105.41;5099260;28;20059;-92
2021/11/06 04:38:59;;;;;;;4.45;2.60;;;;;;;10.45;81.09;99104.53;5101604;28;20516;-92
2021/11/06 04:41:25;;;;;;;5.82;2.60;;;;;;;10.61;80.88;99121.03;5102294;28;20055;-92
2021/11/06 04:43:51;;;;;;;4.05;2.13;;;;;;;10.47;80.67;99089.44;5103802;28;20108;-94
2021/11/06 04:46:18;;;;;;;4.53;2.40;;;;;;;10.46;80.61;99098.31;5102132;28;20044;-94
2021/11/06 04:48:45;;;;;;;4.97;2.40;;;;;;;10.44;80.76;99097.44;5102744;28;20036;-94
2021/11/06 04:51:12;;;;;;;4.40;2.53;;;;;;;10.40;80.98;99100.22;5106382;28;20044;-95
2021/11/06 04:53:40;;;;;;;4.10;2.30;;;;;;;10.45;80.47;99101.88;5103838;28;20119;-92
2021/11/06 04:56:10;;;;;;;5.25;2.40;;;;;;;10.61;80.94;99120.16;5104779;28;20040;-92
2021/11/06 04:58:36;;;;;;;4.63;2.20;;;;;;;10.46;80.45;99102.75;5102609;28;20047;-92
2021/11/06 05:01:01;;;;;;;4.18;2.22;;;;;;;10.59;80.91;99122.84;5102130;28;20063;-93
2021/11/06 05:03:27;;;;;;;4.90;2.10;;;;;;;10.53;80.59;99112.34;5100581;28;20047;-94
2021/11/06 05:05:53;;;;;;;4.45;2.30;;;;;;;10.53;80.54;99117.66;5103678;28;20043;-95
2021/11/06 05:08:20;;;;;;;5.22;2.10;;;;;;;10.52;80.75;99107.94;5101560;28;20055;-94
2021/11/06 05:10:46;;;;;;;3.83;2.20;;;;;;;10.53;80.33;99098.19;5102859;28;20114;-92
2021/11/06 05:13:14;;;;;;;4.78;1.90;;;;;;;10.67;80.45;99136.00;5104062;28;20441;-94
2021/11/06 05:15:40;;;;;;;3.03;1.80;;;;;;;10.59;80.82;99135.28;5099264;28;20032;-92
2021/11/06 05:18:06;;;;;;;3.47;2.10;;;;;;;10.59;80.50;99117.53;5100536;28;20044;-92
2021/11/06 05:20:33;;;;;;;3.38;1.80;;;;;;;10.60;80.57;99105.09;5099868;28;20066;-94
2021/11/06 05:22:59;;;;;;;3.50;2.05;;;;;;;10.62;80.62;99120.09;5097835;28;20044;-93
2021/11/06 05:25:25;;;;;;;3.40;2.00;;;;;;;10.60;80.94;99134.34;5079717;28;20055;-93
2021/11/06 05:27:51;;;;;;;2.97;1.90;;;;;;;10.74;80.55;99113.66;5084592;28;20044;-93
2021/11/06 05:30:19;;;;;;;3.65;2.15;;;;;;;10.86;80.55;99147.97;5098393;28;20044;-93
2021/11/06 05:32:45;;;;;;;4.00;2.40;;;;;;;10.77;80.43;99134.88;5097755;28;20039;-93
2021/11/06 05:35:12;;;;;;;2.40;1.77;;;;;;;10.69;80.60;99142.13;5098465;28;20040;-93
2021/11/06 05:37:38;;;;;;;5.00;1.75;;;;;;;10.65;80.31;99124.50;5098027;28;20423;-93
2021/11/06 05:40:05;;;;;;;3.75;2.33;;;;;;;10.56;80.93;99100.75;5098521;28;20040;-92
2021/11/06 05:42:32;;;;;;;3.08;1.90;;;;;;;10.62;80.73;99113.91;5099831;28;20043;-93
2021/11/06 05:44:58;;;;;;;2.00;1.70;;;;;;;10.79;80.40;99127.72;5097176;28;20048;-93
2021/11/06 05:47:25;;;;;;;3.75;2.00;;;;;;;10.67;80.66;99117.38;5099141;28;20194;-93
2021/11/06 05:49:52;;;;;;;1.98;1.60;;;;;;;10.57;80.75;99102.53;5100293;28;20040;-94
2021/11/06 05:52:18;;;;;;;2.47;1.70;;;;;;;10.80;80.90;99142.78;5099022;28;20447;-93
2021/11/06 05:54:47;;;;;;;1.90;1.70;;;;;;;10.79;80.71;99149.00;5097091;28;20047;-94
2021/11/06 05:57:13;;;;;;;2.00;1.50;;;;;;;10.56;80.82;99120.25;5098494;28;20056;-92
2021/11/06 05:59:40;;;;;;;3.42;1.50;;;;;;;10.67;81.18;99154.63;5100113;28;20111;-94
2021/11/06 06:02:07;;;;;;;2.75;1.60;;;;;;;10.53;81.45;99135.41;5093946;28;20043;-93
2021/11/06 06:04:37;;;;;;;1.58;1.48;;;;;;;10.65;81.01;99167.94;5100427;28;20079;-95
2021/11/06 06:07:04;;;;;;;2.47;1.77;;;;;;;10.77;81.14;99184.53;5100235;28;20051;-95
2021/11/06 06:09:42;;;;;;;2.90;1.50;;;;;;;10.57;80.90;99155.69;5101230;28;20165;-92
2021/11/06 06:12:09;;;;;;;2.97;1.80;;;;;;;10.72;80.90;99173.13;5077717;28;20041;-93
2021/11/06 06:14:35;;;;;;;1.80;1.60;;;;;;;10.81;79.96;99168.47;5079139;28;20040;-93
2021/11/06 06:17:02;;;;;;;2.47;1.70;;;;;;;10.87;79.74;99172.78;5078369;28;20068;-93
2021/11/06 06:19:28;;;;;;;2.08;1.65;;;;;;;10.73;80.21;99170.41;5078211;28;20096;-94
2021/11/06 06:21:55;;;;;;;2.85;1.73;;;;;;;10.71;79.98;99166.91;5078485;28;20093;-93
2021/11/06 06:24:21;;;;;;;1.75;1.38;;;;;;;10.84;80.13;99197.69;5078683;28;20064;-93
2021/11/06 06:26:47;;;;;;;2.10;1.60;;;;;;;10.76;79.73;99175.69;5078509;28;20040;-95
2021/11/06 06:29:13;;;;;;;2.70;1.70;;;;;;;10.76;79.98;99177.47;5079430;28;20048;-93
2021/11/06 06:31:39;;;;;;;1.50;1.40;;;;;;;10.79;79.69;99172.94;5080391;28;20055;-92
2021/11/06 06:34:06;;;;;;;3.10;1.58;;;;;;;10.83;79.25;99177.28;5078859;28;20048;-94
2021/11/06 06:36:32;;;;;;;2.63;1.80;;;;;;;11.01;79.03;99218.59;5078721;28;20051;-93
2021/11/06 06:39:00;;;;;;;2.35;1.70;;;;;;;10.82;78.88;99178.22;5080435;28;20090;-94
2021/11/06 06:41:27;;;;;;;2.28;1.70;;;;;;;10.98;78.83;99217.81;5083200;28;20040;-95
2021/11/06 06:43:53;;;;;;;2.03;1.50;;;;;;;11.10;78.93;99237.03;5084632;28;20045;-94
2021/11/06 06:46:20;;;;;;;1.63;1.52;;;;;;;11.10;77.84;99209.53;5084490;28;20016;-92
2021/11/06 06:48:47;;;;;;;2.22;1.50;;;;;;;11.17;77.75;99205.84;5084133;28;20040;-92
2021/11/06 06:51:15;;;;;;;2.85;1.42;;;;;;;11.23;77.16;99212.78;5083028;28;20079;-93
2021/11/06 06:53:41;;;;;;;3.50;1.60;;;;;;;11.38;76.71;99235.53;5081789;28;20068;-95
2021/11/06 06:56:09;;;;;;;2.83;1.80;;;;;;;11.26;76.69;99194.97;5083925;28;20093;-93
2021/11/06 06:58:35;;;;;;;2.20;1.50;;;;;;;11.39;76.52;99208.88;5083692;28;20516;-94
2021/11/06 07:01:01;;;;;;;2.80;1.50;;;;;;;11.58;75.72;99225.31;5084279;28;20104;-92
2021/11/06 07:03:27;;;;;;;2.92;1.70;;;;;;;11.57;75.74;99215.56;5082277;28;20041;-93
2021/11/06 07:05:53;;;;;;;2.72;1.65;;;;;;;11.73;75.12;99237.34;5083660;28;20053;-93
2021/11/06 07:08:21;;;;;;;6.50;1.90;;;;;;;11.86;75.56;99235.28;5083290;28;20070;-93
2021/11/06 07:10:47;;;;;;;2.80;1.60;;;;;;;11.83;74.64;99227.38;5083190;28;20072;-93
2021/11/06 07:16:27;;;;;;;2.33;1.70;;;;;;;11.85;74.52;99229.06;5115703;27;20371;-95
2021/11/06 07:18:53;;;;;;;2.30;1.70;;;;;;;11.88;73.99;99218.38;5100621;28;20048;-94
2021/11/06 07:21:19;;;;;;;1.60;1.45;;;;;;;12.08;73.73;99225.88;5096005;28;20040;-93
2021/11/06 07:23:45;;;;;;;2.33;1.80;;;;;;;12.05;74.03;99230.41;5100998;28;20055;-92
2021/11/06 07:26:12;;;;;;;3.08;1.80;;;;;;;11.94;73.62;99232.47;5104311;28;20048;-94
2021/11/06 07:28:39;;;;;;;2.45;1.77;;;;;;;12.04;73.49;99228.66;5095846;28;20479;-94
2021/11/06 07:31:05;;;;;;;2.85;1.83;;;;;;;12.17;72.16;99248.75;5101476;28;20095;-93
2021/11/06 07:33:33;;;;;;;4.25;1.80;;;;;;;12.27;72.00;99260.94;5106310;28;20064;-93
2021/11/06 07:35:59;;;;;;;3.13;1.60;;;;;;;12.32;72.26;99250.16;5099588;28;20032;-94
2021/11/06 07:38:25;;;;;;;3.63;2.00;;;;;;;12.37;71.21;99244.69;5096348;28;20070;-92
2021/11/06 07:40:51;;;;;;;3.60;1.88;;;;;;;12.57;71.62;99273.47;5097419;28;20494;-92
2021/11/06 07:43:17;;;;;;;2.45;1.75;;;;;;;12.60;71.29;99250.28;5098040;28;20059;-94
2021/11/06 07:45:43;;;;;;;2.17;1.70;;;;;;;12.59;71.91;99228.97;5096066;28;20040;-94
2021/11/06 07:48:09;;;;;;;4.85;2.13;;;;;;;12.67;70.37;99250.97;5093487;28;20081;-92
2021/11/06 07:50:36;;;;;;;6.45;2.45;;;;;;;12.83;69.39;99262.94;5092356;28;20397;-92
2021/11/06 07:53:02;;;;;;;4.28;2.03;;;;;;;12.84;69.30;99254.03;5092942;28;20059;-92
2021/11/06 07:55:29;;;;;;;4.40;2.00;;;;;;;12.92;67.95;99253.81;5096026;28;20101;-91
2021/11/06 07:57:54;;;;;;;2.55;1.67;;;;;;;13.11;67.51;99268.38;5098188;28;20127;-92
2021/11/06 08:00:20;;;;;;;3.97;1.90;;;;;;;12.99;69.07;99265.19;5097693;28;20070;-91
2021/11/06 08:02:47;;;;;;;3.13;2.20;;;;;;;12.88;68.86;99255.72;5095107;28;20040;-94
2021/11/06 08:05:18;;;;;;;7.53;2.00;;;;;;;13.09;68.28;99282.69;5099741;28;20559;-92
2021/11/06 08:07:46;;;;;;;6.65;2.00;;;;;;;13.11;67.81;99272.84;5097017;28;20075;-93
2021/11/06 08:10:12;;;;;;;3.17;1.95;;;;;;;13.30;66.13;99279.41;5099243;28;20055;-93
2021/11/06 08:12:39;;;;;;;3.97;1.92;;;;;;;13.21;65.99;99265.44;5091904;28;20048;-92
2021/11/06 08:15:07;;;;;;;4.72;1.80;;;;;;;13.33;66.42;99278.44;5091174;28;20536;-95
2021/11/06 08:17:33;;;;;;;4.20;2.65;;;;;;;13.26;66.23;99287.53;5092000;28;20425;-91
2021/11/06 08:19:59;;;;;;;4.13;1.80;;;;;;;13.56;65.41;99281.28;5107167;28;20075;-93
2021/11/06 08:22:25;;;;;;;5.82;2.15;;;;;;;13.67;65.87;99277.41;5096080;28;20074;-92
2021/11/06 08:24:52;;;;;;;3.83;2.20;;;;;;;13.57;65.20;99279.50;5100810;28;21345;-93
2021/11/06 08:27:18;;;;;;;7.43;2.03;;;;;;;13.65;65.90;99290.81;5085276;28;20040;-95
2021/11/06 08:29:44;;;;;;;5.45;2.10;;;;;;;13.53;65.80;99284.06;5086882;28;20036;-89
2021/11/06 08:32:10;;;;;;;5.70;2.20;;;;;;;13.37;65.83;99290.78;5079990;28;20047;-90
2021/11/06 08:34:36;;;;;;;3.95;1.98;;;;;;;13.37;66.96;99281.91;5085113;28;20044;-91
2021/11/06 08:37:02;;;;;;;4.45;2.13;;;;;;;13.48;66.99;99296.69;5081549;28;20044;-93
2021/11/06 08:39:28;;;;;;;7.85;2.20;;;;;;;13.59;66.25;99274.97;5077399;28;20041;-92
2021/11/06 08:41:56;;;;;;;3.70;1.95;;;;;;;13.43;66.94;99287.94;5088295;28;20040;-93
2021/11/06 08:44:22;;;;;;;5.40;2.05;;;;;;;13.70;67.11;99283.53;5073393;28;20033;-91
2021/11/06 08:46:51;;;;;;;4.93;2.40;;;;;;;13.73;66.79;99275.44;5079280;28;20036;-90
2021/11/06 08:49:17;;;;;;;5.50;2.40;;;;;;;13.64;66.78;99266.81;5071813;28;20052;-93
2021/11/06 08:51:46;;;;;;;3.95;2.00;;;;;;;13.88;67.03;99295.44;5078030;28;20692;-92
2021/11/06 08:54:12;;;;;;;;;;;;;;;13.99;65.71;99300.44;5075791;28;20047;-93
2021/11/06 08:56:38;;;;;;;5.18;2.22;;;;;;;13.97;66.43;99267.53;5082869;28;19979;-94
2021/11/06 08:59:05;;;;;;;7.50;2.13;;;;;;;14.38;64.93;99308.09;5082709;28;20538;-91
2021/11/06 09:01:31;;;;;;;3.65;2.10;;;;;;;14.00;65.86;99286.13;5076418;28;20047;-92
2021/11/06 09:03:58;;;;;;;4.30;2.30;;;;;;;13.78;65.60;99285.97;5081593;28;20076;-93
2021/11/06 09:06:25;;;;;;;4.00;2.10;;;;;;;14.13;65.30;99291.97;5086357;28;20040;-93
2021/11/06 09:08:51;;;;;;;3.25;1.95;;;;;;;14.21;64.81;99305.09;5077300;28;20128;-92
2021/11/06 09:11:19;;;;;;;5.40;2.00;;;;;;;14.23;65.64;99301.44;5078746;28;20101;-90
2021/11/06 09:16:46;;;;;;;2.70;1.92;;;;;;;14.02;65.66;99276.28;5111297;27;20396;-90
2021/11/06 09:19:13;;;;;;;5.22;1.92;;;;;;;14.18;65.17;99296.25;5111600;28;20048;-91
2021/11/06 09:21:41;;;;;;;3.47;1.80;;;;;;;14.12;65.76;99279.53;5112830;28;20046;-92
2021/11/06 09:24:07;;;;;;;3.55;2.15;;;;;;;14.05;65.22;99277.97;5112109;28;20036;-94
2021/11/06 09:26:34;;;;;;;3.15;1.83;;;;;;;14.29;65.69;99265.56;5113469;28;20421;-93
2021/11/06 09:29:02;;;;;;;3.05;1.88;;;;;;;14.27;64.64;99272.75;5112181;28;20077;-94
2021/11/06 09:31:28;;;;;;;1.60;1.50;;;;;;;14.29;64.75;99287.88;5111079;28;20058;-92
2021/11/06 09:33:56;;;;;;;2.95;1.60;;;;;;;14.33;63.50;99277.91;5112134;28;20050;-94
2021/11/06 09:36:22;;;;;;;3.75;1.60;;;;;;;14.40;63.49;99274.13;5112812;28;20040;-93
2021/11/06 09:38:48;;;;;;;2.38;1.52;;;;;;;14.27;63.20;99275.44;5114365;28;20126;-92
2021/11/06 09:41:18;;;;;;;1.27;1.17;;;;;;;14.02;63.47;99246.84;5115895;28;20040;-94
2021/11/06 09:43:45;;;;;;;1.90;1.40;;;;;;;14.06;63.31;99232.47;5115700;28;20067;-95
2021/11/06 09:46:12;;;;;;;1.45;1.33;;;;;;;14.10;63.55;99258.19;5112800;28;20126;-93
2021/11/06 09:48:42;;;;;;;1.50;1.40;;;;;;;14.35;62.94;99251.97;5112791;28;20050;-94
2021/11/06 09:51:11;;;;;;;4.68;1.40;;;;;;;14.52;62.12;99254.94;5114352;28;20063;-94
2021/11/06 09:56:40;;;;;;;4.78;1.50;;;;;;;14.46;62.76;99263.19;5148666;27;20642;-93
2021/11/06 09:59:06;;;;;;;3.33;1.45;;;;;;;14.77;62.54;99271.03;5124178;28;20051;-93
2021/11/06 10:01:33;;;;;;;3.25;1.50;;;;;;;14.98;62.06;99273.84;5126311;28;20130;-93
2021/11/06 10:04:07;;;;;;;2.58;1.83;;;;;;;14.87;62.28;99249.28;5124326;28;20059;-95
2021/11/06 10:06:36;;;;;;;2.22;1.60;;;;;;;15.07;61.46;99254.78;5117872;28;20047;-95
2021/11/06 10:09:07;;;;;;;6.32;2.50;;;;;;;15.07;61.06;99254.78;5131400;28;20042;-96
2021/11/06 10:11:34;;;;;;;8.10;3.15;;;;;;;15.26;60.73;99270.16;5128714;28;20126;-94
2021/11/06 10:14:05;;;;;;;4.28;2.00;;;;;;;15.23;59.79;99267.59;5132921;28;20040;-95
2021/11/06 10:16:33;;;;;;;6.80;3.33;;;;;;;14.99;61.26;99279.16;5130239;28;20066;-94
2021/11/06 10:19:10;;;;;;;6.82;3.10;;;;;;;14.73;61.95;99277.44;5130154;28;20043;-93
2021/11/06 10:21:42;;;;;;;2.97;1.90;;;;;;;14.83;61.16;99261.03;5125863;28;20067;-95
2021/11/06 10:24:09;;;;;;;3.65;1.83;;;;;;;14.81;59.70;99276.28;5128555;28;20039;-94
2021/11/06 10:26:35;;;;;;;4.40;1.80;;;;;;;14.56;60.48;99264.66;5126776;28;20036;-92
2021/11/06 10:29:09;;;;;;;7.55;2.33;;;;;;;14.60;59.43;99249.38;5122949;28;20044;-92
2021/11/06 10:31:50;;;;;;;8.65;2.80;;;;;;;14.82;59.19;99265.50;5118803;28;20040;-94
2021/11/06 10:34:17;;;;;;;5.63;2.30;;;;;;;14.74;60.15;99243.50;5103715;28;20035;-95
2021/11/06 10:36:43;;;;;;;5.72;2.35;;;;;;;14.86;59.35;99251.09;5120474;28;20066;-94
2021/11/06 10:39:11;;;;;;;5.32;1.95;;;;;;;15.03;58.61;99269.22;5131820;28;20047;-93
2021/11/06 10:41:39;;;;;;;7.00;2.05;;;;;;;14.94;59.42;99264.19;5130972;28;20044;-93
2021/11/06 10:44:07;;;;;;;3.80;2.03;;;;;;;14.94;59.32;99237.41;5133232;28;20415;-95
2021/11/06 10:46:34;;;;;;;3.92;1.98;;;;;;;15.05;59.04;99275.41;5123568;28;20040;-93
2021/11/06 10:49:03;;;;;;;3.47;1.90;;;;;;;14.83;59.28;99256.53;5128576;28;20043;-94
2021/11/06 10:51:29;;;;;;;6.53;3.13;;;;;;;14.78;59.90;99245.13;5122595;28;20048;-95
2021/11/06 10:53:56;;;;;;;8.07;2.55;;;;;;;14.85;59.86;99233.25;5127664;28;20051;-94
2021/11/06 10:56:31;;;;;;;4.72;2.10;;;;;;;14.86;60.39;99229.66;5134554;28;20055;-94
2021/11/06 10:59:00;;;;;;;5.93;2.10;;;;;;;15.15;59.47;99231.22;5128682;28;20039;-96
2021/11/06 11:01:32;;;;;;;4.00;2.00;;;;;;;15.48;60.09;99243.38;5125254;28;20039;-96
2021/11/06 11:04:04;;;;;;;4.35;2.17;;;;;;;15.44;57.68;99236.38;5131770;28;20133;-96
2021/11/06 11:06:37;;;;;;;4.90;2.47;;;;;;;15.38;57.85;99243.75;5132937;28;20043;-95
2021/11/06 11:09:08;;;;;;;7.22;2.33;;;;;;;15.49;58.00;99219.22;5124997;28;20055;-95
2021/11/06 11:11:34;;;;;;;6.65;2.53;;;;;;;15.46;58.13;99218.44;5124160;28;20069;-95
2021/11/06 11:14:04;;;;;;;7.82;3.72;;;;;;;15.57;57.95;99209.06;5124402;28;20043;-94
2021/11/06 11:16:33;;;;;;;6.05;2.85;;;;;;;15.11;59.38;99191.22;5104971;28;20048;-95
2021/11/06 11:19:05;;;;;;;5.22;3.03;;;;;;;15.14;59.54;99223.28;5122724;28;20047;-96
2021/11/06 11:21:39;;;;;;;9.82;4.00;;;;;;;14.89;60.84;99202.75;5107886;28;20564;-95
2021/11/06 11:24:08;;;;;;;6.88;2.95;;;;;;;14.88;60.77;99193.00;5102794;28;20047;-96
2021/11/06 11:26:36;;;;;;;7.80;2.85;;;;;;;14.98;60.53;99198.88;5103873;28;20044;-95
2021/11/06 11:29:06;;;;;;;5.93;3.15;;;;;;;14.99;61.69;99219.38;5123273;28;20061;-95
2021/11/06 11:31:35;;;;;;;7.85;2.70;;;;;;;14.84;61.59;99180.66;5124056;28;20119;-96
2021/11/06 11:34:01;;;;;;;6.85;2.85;;;;;;;14.86;61.36;99194.84;5118479;28;20044;-95
2021/11/06 11:36:32;;;;;;;9.57;3.20;;;;;;;14.76;61.78;99164.00;5108742;28;20043;-94
2021/11/06 11:39:00;;;;;;;10.18;4.32;;;;;;;14.80;62.09;99168.31;5122579;28;20035;-96
2021/11/06 11:42:11;;;;;;;9.32;3.42;;;;;;;15.03;61.53;99177.25;5119545;28;20043;-95